Time;durP1;ratioP1;P1;durP2;ratioP2;P2;SDS_P1;SDS_P2;PMS_P1;PMS_P2;Temp;Humidity;BMP_temperature;BMP_pressure;BME280_temperature;BME280_humidity;BME280_pressure;Samples;Min_cycle;Max_cycle;Signal;HPM_P1;HPM_P2
2022/05/11 00:03:37;;;;;;;;;;;;;;;;;;;;;
2022/05/11 00:06:28;;;;;;;;;;;19.70;99.90;;;;;;5033102;28;19913;-86
2022/05/11 00:15:27;;;;;;;;;;;19.50;99.90;;;;;;5031234;28;19921;-86
2022/05/11 00:39:47;;;;;;;;;;;19.30;99.90;;;;;;5020561;28;20571;-85
2022/05/11 00:51:59;;;;;;;;;;;19.00;99.90;;;;;;5032735;28;20020;-86
2022/05/11 01:01:03;;;;;;;;;;;18.90;99.90;;;;;;5021835;28;19917;-86
2022/05/11 01:13:09;;;;;;;;;;;18.70;99.90;;;;;;5028864;28;19917;-86
2022/05/11 01:22:08;;;;;;;;;;;;;;;;;;;;;
2022/05/11 01:30:58;;;;;;;;;;;18.30;99.90;;;;;;5021757;28;19952;-86
2022/05/11 01:42:20;;;;;;;;;;;18.00;99.90;;;;;;5021576;28;19924;-85
2022/05/11 01:45:04;;;;;;;;;;;18.00;99.90;;;;;;5035334;28;19916;-86
2022/05/11 01:57:26;;;;;;;;;;;;;;;;;;;;;
2022/05/11 02:00:12;;;;;;;;;;;17.70;1.00;;;;;;5015979;28;19913;-85
2022/05/11 02:32:06;;;;;;;;;;;;;;;;;;;;;
2022/05/11 02:59:20;;;;;;;;;;;16.90;1.00;;;;;;5021732;28;19913;-85
2022/05/11 03:01:45;;;;;;;;;;;16.90;1.00;;;;;;5021510;28;19919;-86
2022/05/11 03:04:16;;;;;;;;;;;16.80;1.00;;;;;;5033480;28;19913;-85
2022/05/11 03:06:52;;;;;;;;;;;;;;;;;;;;;
2022/05/11 03:12:27;;;;;;;;;;;16.70;1.00;;;;;;5013962;28;19944;-85
2022/05/11 03:14:57;;;;;;;;;;;16.70;20.40;;;;;;5027538;28;19913;-86
2022/05/11 03:27:19;;;;;;;;;;;;;;;;;;;;;
2022/05/11 03:36:08;;;;;;;;;;;16.50;99.90;;;;;;5030519;28;20408;-87
2022/05/11 04:06:44;;;;;;;;;;;;;;;;;;;;;
2022/05/11 04:15:53;;;;;;;;;;;16.60;1.00;;;;;;5033520;28;20388;-87
2022/05/11 04:25:24;;;;;;;;;;;;;;;;;;;;;
2022/05/11 04:30:53;;;;;;;;;;;16.90;1.00;;;;;;5028864;28;19956;-88
2022/05/11 04:48:39;;;;;;;;;;;16.90;1.00;;;;;;5016026;28;19916;-87
2022/05/11 04:51:08;;;;;;;;;;;16.90;1.00;;;;;;5044395;28;20285;-86
2022/05/11 04:53:38;;;;;;;;;;;16.90;1.00;;;;;;5044542;28;19916;-86
2022/05/11 04:56:04;;;;;;;;;;;16.80;1.00;;;;;;5046623;28;19959;-86
2022/05/11 04:58:34;;;;;;;;;;;16.80;1.00;;;;;;5040438;28;19952;-86
2022/05/11 05:03:57;;;;;;;;;;;16.90;1.00;;;;;;5072089;28;20008;-86
2022/05/11 05:06:32;;;;;;;;;;;16.90;1.00;;;;;;5048382;28;19913;-87
2022/05/11 05:09:07;;;;;;;;;;;17.00;1.00;;;;;;5036116;28;19922;-88
2022/05/11 05:11:33;;;;;;;;;;;17.10;1.00;;;;;;5043252;28;19915;-85
2022/05/11 05:13:58;;;;;;;;;;;17.20;1.00;;;;;;5036325;28;19968;-88
2022/05/11 05:16:23;;;;;;;;;;;17.30;1.00;;;;;;5050811;28;19971;-88
2022/05/11 05:18:52;;;;;;;;;;;17.30;1.00;;;;;;5038190;28;19929;-87
2022/05/11 05:21:17;;;;;;;;;;;17.40;1.00;;;;;;5036367;28;20342;-87
2022/05/11 05:23:43;;;;;;;;;;;17.50;1.00;;;;;;5053726;28;19955;-87
2022/05/11 05:26:08;;;;;;;;;;;17.60;1.00;;;;;;5042914;28;20297;-89
2022/05/11 05:34:47;;;;;;;;;;;18.00;1.00;;;;;;5026455;28;19956;-87
2022/05/11 05:37:30;;;;;;;;;;;18.20;1.00;;;;;;5042050;28;19988;-85
2022/05/11 05:40:26;;;;;;;;;;;;;;;;;;;;;
2022/05/11 05:43:24;;;;;;;;;;;;;;;;;;;;;
2022/05/11 05:45:56;;;;;;;;;;;23.80;99.90;;;;;;5043926;28;20456;-83
2022/05/11 05:48:22;;;;;;;;;;;27.10;99.90;;;;;;5046563;28;20011;-83
2022/05/11 05:50:48;;;;;;;;;;;29.40;99.90;;;;;;5052163;28;19925;-83
2022/05/11 05:53:24;;;;;;;;;;;;;;;;;;;;;
2022/05/11 05:55:55;;;;;;;;;;;32.50;99.90;;;;;;5044029;28;19995;-82
2022/05/11 05:58:21;;;;;;;;;;;34.10;99.90;;;;;;5048523;28;19913;-83
2022/05/11 06:00:47;;;;;;;;;;;35.20;99.90;;;;;;5055510;28;19913;-85
2022/05/11 06:03:18;;;;;;;;;;;36.20;99.90;;;;;;5045568;28;19929;-83
2022/05/11 06:05:43;;;;;;;;;;;37.20;99.90;;;;;;5042182;28;19924;-83
2022/05/11 06:08:17;;;;;;;;;;;38.10;99.90;;;;;;5040706;28;19909;-83
2022/05/11 06:10:52;;;;;;;;;;;39.10;99.90;;;;;;5036159;28;19913;-85
2022/05/11 06:13:51;;;;;;;;;;;;;;;;;;;;;
2022/05/11 06:16:36;;;;;;;;;;;40.70;99.90;;;;;;5042347;28;20015;-83
2022/05/11 06:19:22;;;;;;;;;;;41.70;99.90;;;;;;5037038;28;19921;-85
2022/05/11 06:21:59;;;;;;;;;;;42.60;99.90;;;;;;5031191;28;20465;-85
2022/05/11 06:24:27;;;;;;;;;;;43.80;99.90;;;;;;5037204;28;20007;-85
2022/05/11 06:27:03;;;;;;;;;;;45.10;99.90;;;;;;5036901;28;19920;-84
2022/05/11 06:29:31;;;;;;;;;;;46.20;99.90;;;;;;5030131;28;20203;-85
2022/05/11 06:32:22;;;;;;;;;;;47.20;99.90;;;;;;5028676;28;19925;-85
2022/05/11 06:37:54;;;;;;;;;;;48.40;99.90;;;;;;5037465;28;19919;-83
2022/05/11 06:40:22;;;;;;;;;;;49.00;99.90;;;;;;5029756;28;20028;-82
2022/05/11 06:42:49;;;;;;;;;;;49.80;99.90;;;;;;5031012;28;19918;-83
2022/05/11 06:45:15;;;;;;;;;;;50.40;99.90;;;;;;5032140;28;19966;-83
2022/05/11 06:47:40;;;;;;;;;;;50.10;99.90;;;;;;5028833;28;20012;-83
2022/05/11 06:50:13;;;;;;;;;;;50.70;99.90;;;;;;5044806;28;19913;-83
2022/05/11 06:52:39;;;;;;;;;;;51.20;99.90;;;;;;5023539;28;20003;-83
2022/05/11 07:00:33;;;;;;;;;;;51.40;99.90;;;;;;5029074;28;19932;-83
2022/05/11 07:02:59;;;;;;;;;;;50.60;99.90;;;;;;5028035;28;19913;-83
2022/05/11 07:05:25;;;;;;;;;;;51.00;99.90;;;;;;5029841;28;19928;-82
2022/05/11 07:07:52;;;;;;;;;;;51.30;99.90;;;;;;5025094;28;19928;-83
2022/05/11 07:10:18;;;;;;;;;;;51.00;99.90;;;;;;5031126;28;19912;-83
2022/05/11 07:12:46;;;;;;;;;;;50.60;99.90;;;;;;5034251;28;19917;-83
2022/05/11 07:15:12;;;;;;;;;;;50.50;99.90;;;;;;5029908;28;19917;-83
2022/05/11 07:17:39;;;;;;;;;;;50.60;99.90;;;;;;5054627;28;20416;-83
2022/05/11 07:20:15;;;;;;;;;;;51.20;99.90;;;;;;5043913;28;19966;-83
2022/05/11 07:22:41;;;;;;;;;;;51.00;99.90;;;;;;5027840;28;19919;-84
2022/05/11 07:25:08;;;;;;;;;;;50.40;99.90;;;;;;5028748;28;19913;-84
2022/05/11 07:27:34;;;;;;;;;;;50.80;99.90;;;;;;5040034;28;19923;-84
2022/05/11 07:29:59;;;;;;;;;;;50.90;99.90;;;;;;5040880;28;19945;-84
2022/05/11 07:32:27;;;;;;;;;;;50.60;99.90;;;;;;5031379;28;20361;-85
2022/05/11 07:34:52;;;;;;;;;;;50.10;99.90;;;;;;5031279;28;19952;-84
2022/05/11 07:37:18;;;;;;;;;;;49.50;99.90;;;;;;5029414;28;19959;-83
2022/05/11 07:39:43;;;;;;;;;;;49.60;99.90;;;;;;5029140;28;19921;-84
2022/05/11 07:42:09;;;;;;;;;;;49.60;99.90;;;;;;5030626;28;19952;-83
2022/05/11 07:44:34;;;;;;;;;;;49.40;99.90;;;;;;5031635;28;19924;-83
2022/05/11 07:47:00;;;;;;;;;;;49.80;99.90;;;;;;5031974;28;19979;-83
2022/05/11 07:49:25;;;;;;;;;;;50.10;99.90;;;;;;5029905;28;19914;-83
2022/05/11 07:51:52;;;;;;;;;;;49.60;99.90;;;;;;5027788;28;19995;-83
2022/05/11 07:54:18;;;;;;;;;;;49.50;99.90;;;;;;5023512;28;19925;-85
2022/05/11 08:02:14;;;;;;;;;;;49.40;99.90;;;;;;5031062;28;19921;-83
2022/05/11 08:04:41;;;;;;;;;;;49.40;99.90;;;;;;5028133;28;20012;-83
2022/05/11 08:07:07;;;;;;;;;;;48.70;99.90;;;;;;5029008;28;19918;-84
2022/05/11 08:09:32;;;;;;;;;;;48.20;99.90;;;;;;5029580;28;20263;-83
2022/05/11 08:11:58;;;;;;;;;;;48.60;99.90;;;;;;5028459;28;19943;-83
2022/05/11 08:14:23;;;;;;;;;;;48.30;99.90;;;;;;5028107;28;19920;-82
2022/05/11 08:16:52;;;;;;;;;;;48.80;99.90;;;;;;5027270;28;20377;-83
2022/05/11 08:19:38;;;;;;;;;;;48.20;99.90;;;;;;5026323;28;19927;-83
2022/05/11 08:22:04;;;;;;;;;;;48.50;99.90;;;;;;5029117;28;19971;-83
2022/05/11 08:24:31;;;;;;;;;;;49.10;99.90;;;;;;5028277;28;20301;-83
2022/05/11 08:26:56;;;;;;;;;;;48.90;99.90;;;;;;5031107;28;19917;-83
2022/05/11 08:34:50;;;;;;;;;;;48.50;99.90;;;;;;5029054;28;20028;-83
2022/05/11 08:37:16;;;;;;;;;;;48.00;99.90;;;;;;5028941;28;19974;-83
2022/05/11 08:39:42;;;;;;;;;;;47.80;99.90;;;;;;5044979;28;19999;-82
2022/05/11 08:42:08;;;;;;;;;;;47.20;99.90;;;;;;5030903;28;19917;-83
2022/05/11 08:44:34;;;;;;;;;;;48.00;99.90;;;;;;5029650;28;20396;-82
2022/05/11 08:47:08;;;;;;;;;;;48.00;99.90;;;;;;5032507;28;19929;-82
2022/05/11 08:49:49;;;;;;;;;;;47.90;99.90;;;;;;5031009;28;19997;-83
2022/05/11 08:52:33;;;;;;;;;;;47.20;99.90;;;;;;5052995;28;19913;-82
2022/05/11 08:55:07;;;;;;;;;;;46.10;99.90;;;;;;5037389;28;20301;-82
2022/05/11 08:57:33;;;;;;;;;;;46.20;99.90;;;;;;5038405;28;19916;-82
2022/05/11 09:00:03;;;;;;;;;;;46.70;99.90;;;;;;5038892;28;19913;-84
2022/05/11 09:02:34;;;;;;;;;;;47.50;99.90;;;;;;5033745;28;19976;-82
2022/05/11 09:05:01;;;;;;;;;;;47.70;99.90;;;;;;5035952;28;19920;-82
2022/05/11 09:07:27;;;;;;;;;;;47.80;99.90;;;;;;5037903;28;20440;-82
2022/05/11 09:09:54;;;;;;;;;;;47.90;99.90;;;;;;5047209;28;19983;-82
2022/05/11 09:12:20;;;;;;;;;;;47.20;99.90;;;;;;5035868;28;20003;-83
2022/05/11 09:14:51;;;;;;;;;;;47.30;99.90;;;;;;5039205;28;19917;-81
2022/05/11 09:17:28;;;;;;;;;;;46.60;99.90;;;;;;5052922;28;19920;-82
2022/05/11 09:20:13;;;;;;;;;;;47.00;99.90;;;;;;5044749;28;19931;-82
2022/05/11 09:22:40;;;;;;;;;;;47.20;99.90;;;;;;5054692;28;19913;-82
2022/05/11 09:25:22;;;;;;;;;;;47.10;99.90;;;;;;5049526;28;19913;-81
2022/05/11 09:27:48;;;;;;;;;;;46.30;99.90;;;;;;5053511;28;19928;-81
2022/05/11 09:30:17;;;;;;;;;;;46.20;99.90;;;;;;5065038;28;19913;-82
2022/05/11 09:32:44;;;;;;;;;;;46.80;99.90;;;;;;5052311;28;19935;-82
2022/05/11 09:35:21;;;;;;;;;;;46.80;99.90;;;;;;5065463;28;19932;-82
2022/05/11 09:37:55;;;;;;;;;;;46.60;99.90;;;;;;5054246;28;19919;-81
2022/05/11 09:40:21;;;;;;;;;;;46.20;99.90;;;;;;5034778;28;19952;-81
2022/05/11 09:42:56;;;;;;;;;;;45.70;99.90;;;;;;5041506;28;20057;-81
2022/05/11 09:45:40;;;;;;;;;;;45.80;99.90;;;;;;5060682;28;19932;-81
2022/05/11 09:48:17;;;;;;;;;;;45.80;99.90;;;;;;5049492;28;19972;-81
2022/05/11 09:50:43;;;;;;;;;;;45.60;99.90;;;;;;5036515;28;19931;-80
2022/05/11 09:53:29;;;;;;;;;;;45.90;99.90;;;;;;5045597;28;19909;-81
2022/05/11 09:55:55;;;;;;;;;;;45.60;99.90;;;;;;5038504;28;19909;-81
2022/05/11 09:58:29;;;;;;;;;;;45.20;99.90;;;;;;5048538;28;19915;-81
2022/05/11 10:01:07;;;;;;;;;;;44.70;99.90;;;;;;5039530;28;19910;-81
2022/05/11 10:03:32;;;;;;;;;;;44.20;99.90;;;;;;5047039;28;20405;-81
2022/05/11 10:05:58;;;;;;;;;;;44.40;99.90;;;;;;5049212;28;19992;-81
2022/05/11 10:08:23;;;;;;;;;;;44.30;99.90;;;;;;5057558;28;19944;-81
2022/05/11 10:10:54;;;;;;;;;;;44.60;99.90;;;;;;5047978;28;19921;-80
2022/05/11 10:13:39;;;;;;;;;;;43.80;99.90;;;;;;5059976;28;19920;-80
2022/05/11 10:21:53;;;;;;;;;;;43.90;99.90;;;;;;5047227;28;19920;-81
2022/05/11 10:24:37;;;;;;;;;;;44.10;99.90;;;;;;5043246;28;20346;-80
2022/05/11 10:27:08;;;;;;;;;;;43.30;99.90;;;;;;5042995;28;19921;-81
2022/05/11 10:29:39;;;;;;;;;;;43.70;99.90;;;;;;5048988;28;19920;-80
2022/05/11 10:32:19;;;;;;;;;;;43.90;99.90;;;;;;5042676;28;19954;-80
2022/05/11 10:34:48;;;;;;;;;;;43.80;99.90;;;;;;5040256;28;19913;-80
2022/05/11 10:37:37;;;;;;;;;;;44.30;99.90;;;;;;5039122;28;19913;-82
2022/05/11 10:40:25;;;;;;;;;;;44.30;99.90;;;;;;5046166;28;19913;-81
2022/05/11 10:42:57;;;;;;;;;;;44.50;99.90;;;;;;5050467;28;20109;-81
2022/05/11 10:45:30;;;;;;;;;;;44.60;99.90;;;;;;5051581;28;19913;-82
2022/05/11 10:48:35;;;;;;;;;;;44.90;99.90;;;;;;5051852;28;19919;-80
2022/05/11 10:51:06;;;;;;;;;;;44.50;99.90;;;;;;4999179;28;20503;-81
2022/05/11 10:53:34;;;;;;;;;;;43.80;99.90;;;;;;5000254;28;20378;-81
2022/05/11 10:56:05;;;;;;;;;;;43.10;99.90;;;;;;5008693;28;19913;-82
2022/05/11 10:58:40;;;;;;;;;;;43.00;99.90;;;;;;5038449;28;19920;-81
2022/05/11 11:01:05;;;;;;;;;;;42.70;99.90;;;;;;5037238;28;19996;-82
2022/05/11 11:03:31;;;;;;;;;;;42.60;99.90;;;;;;5039386;28;19949;-81
2022/05/11 11:08:51;;;;;;;;;;;42.10;99.90;;;;;;5036935;28;19943;-81
2022/05/11 11:11:22;;;;;;;;;;;41.70;99.90;;;;;;5035944;28;19921;-81
2022/05/11 11:13:51;;;;;;;;;;;41.80;99.90;;;;;;5034337;28;20415;-81
2022/05/11 11:16:17;;;;;;;;;;;41.40;99.90;;;;;;5032698;28;19952;-81
2022/05/11 11:18:48;;;;;;;;;;;41.10;99.70;;;;;;5035406;28;19924;-81
2022/05/11 11:21:14;;;;;;;;;;;41.00;99.80;;;;;;5033210;28;20300;-81
2022/05/11 11:23:41;;;;;;;;;;;40.60;99.90;;;;;;5038665;28;19940;-82
2022/05/11 11:26:11;;;;;;;;;;;40.00;99.10;;;;;;5032114;28;19924;-82
2022/05/11 11:28:40;;;;;;;;;;;39.90;99.20;;;;;;5034004;28;19917;-81
2022/05/11 11:31:14;;;;;;;;;;;39.80;99.90;;;;;;5029964;28;19943;-80
2022/05/11 11:34:09;;;;;;;;;;;39.80;99.90;;;;;;5031451;28;19913;-81
2022/05/11 11:36:36;;;;;;;;;;;40.10;99.90;;;;;;5026245;28;19976;-80
2022/05/11 11:39:03;;;;;;;;;;;40.20;99.90;;;;;;5034021;28;20337;-81
2022/05/11 11:41:30;;;;;;;;;;;39.60;99.90;;;;;;5037533;28;19909;-80
2022/05/11 11:43:58;;;;;;;;;;;39.60;99.90;;;;;;5028683;28;19921;-81
2022/05/11 11:46:40;;;;;;;;;;;39.70;99.90;;;;;;5041515;28;19916;-80
2022/05/11 11:49:18;;;;;;;;;;;39.50;99.90;;;;;;5040695;28;19928;-80
2022/05/11 11:52:00;;;;;;;;;;;39.30;99.90;;;;;;5037394;28;19924;-80
2022/05/11 11:54:41;;;;;;;;;;;38.90;99.90;;;;;;5041548;28;19940;-80
2022/05/11 11:57:06;;;;;;;;;;;38.70;99.90;;;;;;5047188;28;19944;-82
2022/05/11 11:59:35;;;;;;;;;;;38.90;99.90;;;;;;5048532;28;19913;-81
2022/05/11 12:02:16;;;;;;;;;;;39.10;99.90;;;;;;5042368;28;19937;-80
2022/05/11 12:04:44;;;;;;;;;;;38.90;99.90;;;;;;5033296;28;20373;-80
2022/05/11 12:15:35;;;;;;;;;;;37.80;99.90;;;;;;5035208;28;20001;-80
2022/05/11 12:18:02;;;;;;;;;;;37.60;99.90;;;;;;5035821;28;20285;-80
2022/05/11 12:20:40;;;;;;;;;;;37.70;99.90;;;;;;5043480;28;19925;-81
2022/05/11 12:23:10;;;;;;;;;;;38.00;99.90;;;;;;5030063;28;19913;-80
2022/05/11 12:25:36;;;;;;;;;;;38.30;99.90;;;;;;5033691;28;19944;-79
2022/05/11 12:28:16;;;;;;;;;;;38.10;99.90;;;;;;5036834;28;19925;-79
2022/05/11 12:30:42;;;;;;;;;;;38.40;99.90;;;;;;5031072;28;19955;-80
2022/05/11 12:33:08;;;;;;;;;;;38.40;99.90;;;;;;5022238;28;19944;-79
2022/05/11 12:35:36;;;;;;;;;;;38.40;99.90;;;;;;5035919;28;19913;-79
2022/05/11 12:38:07;;;;;;;;;;;38.30;99.90;;;;;;5046052;28;19919;-78
2022/05/11 12:40:34;;;;;;;;;;;38.00;99.90;;;;;;5043511;28;19917;-79
2022/05/11 12:43:06;;;;;;;;;;;38.10;99.90;;;;;;5046157;28;20723;-79
2022/05/11 12:45:44;;;;;;;;;;;37.80;99.90;;;;;;5054493;28;20020;-79
2022/05/11 12:48:15;;;;;;;;;;;37.30;99.90;;;;;;5049398;28;21001;-79
2022/05/11 12:51:10;;;;;;;;;;;37.20;99.90;;;;;;5046890;28;19916;-79
2022/05/11 12:53:39;;;;;;;;;;;36.90;99.90;;;;;;5028312;28;19917;-80
2022/05/11 12:56:13;;;;;;;;;;;36.80;99.90;;;;;;5050613;28;19947;-80
2022/05/11 12:58:44;;;;;;;;;;;36.60;99.90;;;;;;5038167;28;20371;-79
2022/05/11 13:01:11;;;;;;;;;;;36.50;99.90;;;;;;5033671;28;20004;-79
2022/05/11 13:03:38;;;;;;;;;;;36.40;99.90;;;;;;5036713;28;19961;-79
2022/05/11 13:06:09;;;;;;;;;;;36.00;99.90;;;;;;5041519;28;20323;-80
2022/05/11 13:08:45;;;;;;;;;;;36.00;99.90;;;;;;5042531;28;19972;-79
2022/05/11 13:11:16;;;;;;;;;;;36.10;99.90;;;;;;5039072;28;19910;-79
2022/05/11 13:13:42;;;;;;;;;;;35.90;99.90;;;;;;5038614;28;19959;-82
2022/05/11 13:16:11;;;;;;;;;;;35.90;99.90;;;;;;5038834;28;19909;-80
2022/05/11 13:18:38;;;;;;;;;;;35.90;99.90;;;;;;5045142;28;19917;-79
2022/05/11 13:21:05;;;;;;;;;;;35.60;99.90;;;;;;5050060;28;19917;-79
2022/05/11 13:23:33;;;;;;;;;;;35.40;99.90;;;;;;5047733;28;19909;-79
2022/05/11 13:25:59;;;;;;;;;;;35.30;99.90;;;;;;5037858;28;19921;-79
2022/05/11 13:28:26;;;;;;;;;;;35.10;99.90;;;;;;5037709;28;20280;-79
2022/05/11 13:30:54;;;;;;;;;;;35.00;99.90;;;;;;5042316;28;19917;-79
2022/05/11 13:33:40;;;;;;;;;;;34.80;99.90;;;;;;5047948;28;19971;-82
2022/05/11 13:36:08;;;;;;;;;;;34.80;99.90;;;;;;5048209;28;20316;-81
2022/05/11 13:38:34;;;;;;;;;;;34.70;99.90;;;;;;5048263;28;19948;-80
2022/05/11 13:41:03;;;;;;;;;;;34.60;99.90;;;;;;5040274;28;19909;-81
2022/05/11 13:43:33;;;;;;;;;;;34.50;99.90;;;;;;5061535;28;19917;-79
2022/05/11 13:45:59;;;;;;;;;;;34.40;99.90;;;;;;5043982;28;20417;-81
2022/05/11 13:48:26;;;;;;;;;;;34.20;99.90;;;;;;5035956;28;19913;-81
2022/05/11 13:50:52;;;;;;;;;;;34.00;99.90;;;;;;5038028;28;19917;-81
2022/05/11 13:53:17;;;;;;;;;;;33.80;99.90;;;;;;5036876;28;19937;-82
2022/05/11 13:55:44;;;;;;;;;;;33.60;99.90;;;;;;5039888;28;19959;-81
2022/05/11 13:58:28;;;;;;;;;;;33.60;99.90;;;;;;5038524;28;19914;-82
2022/05/11 14:00:55;;;;;;;;;;;33.50;99.90;;;;;;5031689;28;19924;-81
2022/05/11 14:03:23;;;;;;;;;;;33.20;99.90;;;;;;5044946;28;20000;-81
2022/05/11 14:05:49;;;;;;;;;;;33.10;99.90;;;;;;5038638;28;20000;-82
2022/05/11 14:08:14;;;;;;;;;;;32.90;99.90;;;;;;5037107;28;20067;-82
2022/05/11 14:10:40;;;;;;;;;;;32.40;99.90;;;;;;5038122;28;20008;-82
2022/05/11 14:13:05;;;;;;;;;;;32.00;99.90;;;;;;5037840;28;19966;-81
2022/05/11 14:15:31;;;;;;;;;;;31.70;99.90;;;;;;5044299;28;19913;-81
2022/05/11 14:17:56;;;;;;;;;;;31.60;99.90;;;;;;5047449;28;19917;-80
2022/05/11 14:20:24;;;;;;;;;;;31.40;99.90;;;;;;5058421;28;19962;-80
2022/05/11 14:22:50;;;;;;;;;;;31.20;99.90;;;;;;5059021;28;19908;-80
2022/05/11 14:25:16;;;;;;;;;;;31.10;99.90;;;;;;5038512;28;19929;-81
2022/05/11 14:27:42;;;;;;;;;;;31.10;99.90;;;;;;5033510;28;19913;-80
2022/05/11 14:30:08;;;;;;;;;;;31.00;99.90;;;;;;5032147;28;19917;-80
2022/05/11 14:32:39;;;;;;;;;;;30.80;99.90;;;;;;5035075;28;19943;-80
2022/05/11 14:35:06;;;;;;;;;;;30.60;99.90;;;;;;5033589;28;21962;-80
2022/05/11 14:37:32;;;;;;;;;;;30.50;99.90;;;;;;5035498;28;19917;-80
2022/05/11 14:40:01;;;;;;;;;;;30.40;99.90;;;;;;5020724;28;19956;-80
2022/05/11 14:42:27;;;;;;;;;;;30.20;99.90;;;;;;5036995;28;20401;-81
2022/05/11 14:44:53;;;;;;;;;;;29.90;99.90;;;;;;5035101;28;19920;-81
2022/05/11 14:47:18;;;;;;;;;;;29.70;99.90;;;;;;5028684;28;19957;-81
2022/05/11 14:49:44;;;;;;;;;;;29.70;99.90;;;;;;5036299;28;20288;-81
2022/05/11 14:52:10;;;;;;;;;;;29.70;99.90;;;;;;5035548;28;19913;-81
2022/05/11 14:54:35;;;;;;;;;;;29.80;99.90;;;;;;5034105;28;19913;-82
2022/05/11 15:02:30;;;;;;;;;;;29.80;99.90;;;;;;5036135;28;19921;-82
2022/05/11 15:04:56;;;;;;;;;;;29.70;99.90;;;;;;5032641;28;19921;-82
2022/05/11 15:07:21;;;;;;;;;;;29.60;99.90;;;;;;5037197;28;19920;-81
2022/05/11 15:09:47;;;;;;;;;;;29.50;99.90;;;;;;5031129;28;20464;-81
2022/05/11 15:14:57;;;;;;;;;;;29.60;99.90;;;;;;5031671;28;20069;-81
2022/05/11 15:17:23;;;;;;;;;;;29.70;99.90;;;;;;5035742;28;20328;-81
2022/05/11 15:19:49;;;;;;;;;;;29.70;99.90;;;;;;5034840;28;19924;-81
2022/05/11 15:22:14;;;;;;;;;;;29.60;99.90;;;;;;5035724;28;19968;-81
2022/05/11 15:24:40;;;;;;;;;;;29.50;99.90;;;;;;5033597;28;19913;-81
2022/05/11 15:27:06;;;;;;;;;;;29.20;99.90;;;;;;5034588;28;19920;-81
2022/05/11 15:29:31;;;;;;;;;;;29.10;99.90;;;;;;5030930;28;19944;-81
2022/05/11 15:31:59;;;;;;;;;;;28.90;99.90;;;;;;5034456;28;19963;-81
2022/05/11 15:34:25;;;;;;;;;;;28.60;99.90;;;;;;5035304;28;19980;-81
2022/05/11 15:36:51;;;;;;;;;;;28.60;99.90;;;;;;5033594;28;19972;-81
2022/05/11 15:39:17;;;;;;;;;;;28.50;99.90;;;;;;5034364;28;19985;-82
2022/05/11 15:41:42;;;;;;;;;;;28.40;99.90;;;;;;5034921;28;19909;-81
2022/05/11 15:44:09;;;;;;;;;;;28.30;99.90;;;;;;5034480;28;20364;-82
2022/05/11 15:46:35;;;;;;;;;;;28.20;99.90;;;;;;5033101;28;20299;-82
2022/05/11 15:49:00;;;;;;;;;;;28.20;99.90;;;;;;5033053;28;19917;-82
2022/05/11 15:51:29;;;;;;;;;;;28.00;99.90;;;;;;5035338;28;20321;-82
2022/05/11 15:53:54;;;;;;;;;;;28.00;99.90;;;;;;5033002;28;19939;-81
2022/05/11 15:56:20;;;;;;;;;;;28.00;99.90;;;;;;5034560;28;20003;-82
2022/05/11 15:58:46;;;;;;;;;;;27.90;99.90;;;;;;5031170;28;20437;-80
2022/05/11 16:01:14;;;;;;;;;;;28.00;99.90;;;;;;5030207;28;19913;-81
2022/05/11 16:03:41;;;;;;;;;;;28.10;99.90;;;;;;5033088;28;20043;-78
2022/05/11 16:06:07;;;;;;;;;;;28.30;99.90;;;;;;5031716;28;19913;-79
2022/05/11 16:08:32;;;;;;;;;;;28.40;99.90;;;;;;5031502;28;19921;-78
2022/05/11 16:10:59;;;;;;;;;;;28.40;99.90;;;;;;5033951;28;19971;-78
2022/05/11 16:13:25;;;;;;;;;;;28.50;99.90;;;;;;5044797;28;20090;-78
2022/05/11 16:15:50;;;;;;;;;;;28.40;99.90;;;;;;5048322;28;19909;-79
2022/05/11 16:21:00;;;;;;;;;;;28.30;99.90;;;;;;5031853;28;19928;-78
2022/05/11 16:23:26;;;;;;;;;;;28.20;99.90;;;;;;5039480;28;19909;-78
2022/05/11 16:25:51;;;;;;;;;;;28.20;99.90;;;;;;5029835;28;19913;-78
2022/05/11 16:28:17;;;;;;;;;;;28.10;99.90;;;;;;5030097;28;19977;-78
2022/05/11 16:30:42;;;;;;;;;;;28.00;99.90;;;;;;5027179;28;19996;-78
2022/05/11 16:33:08;;;;;;;;;;;27.80;99.90;;;;;;5029963;28;20316;-78
2022/05/11 16:35:33;;;;;;;;;;;27.80;99.90;;;;;;5027836;28;20020;-78
2022/05/11 16:37:59;;;;;;;;;;;27.80;99.90;;;;;;5028629;28;20447;-78
2022/05/11 16:40:25;;;;;;;;;;;27.80;99.90;;;;;;5029230;28;20008;-78
2022/05/11 16:42:50;;;;;;;;;;;27.80;99.90;;;;;;5028723;28;19913;-79
2022/05/11 16:45:16;;;;;;;;;;;27.70;99.90;;;;;;5029670;28;19917;-78
2022/05/11 16:47:42;;;;;;;;;;;27.80;99.90;;;;;;5033462;28;19917;-78
2022/05/11 16:50:07;;;;;;;;;;;27.60;99.90;;;;;;5029546;28;19984;-77
2022/05/11 16:52:33;;;;;;;;;;;27.50;99.90;;;;;;5037355;28;19914;-78
2022/05/11 16:55:00;;;;;;;;;;;27.40;99.90;;;;;;5036578;28;20124;-78
2022/05/11 16:57:25;;;;;;;;;;;27.30;99.90;;;;;;5039525;28;19940;-78
2022/05/11 16:59:51;;;;;;;;;;;27.00;99.90;;;;;;5032023;28;19962;-78
2022/05/11 17:02:17;;;;;;;;;;;26.90;99.90;;;;;;5026240;28;19920;-77
2022/05/11 17:04:42;;;;;;;;;;;26.80;99.90;;;;;;5022040;28;20422;-78
2022/05/11 17:07:08;;;;;;;;;;;26.70;99.90;;;;;;5029588;28;19920;-79
2022/05/11 17:09:33;;;;;;;;;;;26.80;99.90;;;;;;5027734;28;19944;-79
2022/05/11 17:11:59;;;;;;;;;;;26.80;99.90;;;;;;5031806;28;19917;-79
2022/05/11 17:14:27;;;;;;;;;;;26.80;99.90;;;;;;5030466;28;19913;-79
2022/05/11 17:16:53;;;;;;;;;;;26.80;99.90;;;;;;5030896;28;19940;-79
2022/05/11 17:19:19;;;;;;;;;;;26.90;99.90;;;;;;5030257;28;20312;-79
2022/05/11 17:21:45;;;;;;;;;;;27.00;99.90;;;;;;5032972;28;19953;-79
2022/05/11 17:24:11;;;;;;;;;;;27.10;99.90;;;;;;5034070;28;19917;-79
2022/05/11 17:26:36;;;;;;;;;;;27.20;99.90;;;;;;5033941;28;20455;-79
2022/05/11 17:29:04;;;;;;;;;;;27.20;99.90;;;;;;5034883;28;19974;-78
2022/05/11 17:31:31;;;;;;;;;;;27.20;99.90;;;;;;5032593;28;19924;-79
2022/05/11 17:33:57;;;;;;;;;;;27.10;99.90;;;;;;5034762;28;19998;-79
2022/05/11 17:36:23;;;;;;;;;;;27.10;99.90;;;;;;5032442;28;19921;-79
2022/05/11 17:38:50;;;;;;;;;;;27.00;99.90;;;;;;5033964;28;19919;-79
2022/05/11 17:41:17;;;;;;;;;;;27.00;99.90;;;;;;5034979;28;19921;-79
2022/05/11 17:43:43;;;;;;;;;;;27.00;99.90;;;;;;5032219;28;20001;-79
2022/05/11 17:46:10;;;;;;;;;;;26.90;99.90;;;;;;5035007;28;19949;-79
2022/05/11 17:48:36;;;;;;;;;;;26.70;99.90;;;;;;5032538;28;19917;-79
2022/05/11 17:51:02;;;;;;;;;;;26.50;99.90;;;;;;5031885;28;20000;-79
2022/05/11 17:53:28;;;;;;;;;;;26.50;99.90;;;;;;5031071;28;20458;-79
2022/05/11 17:55:53;;;;;;;;;;;26.40;99.90;;;;;;5031829;28;19913;-79
2022/05/11 17:58:20;;;;;;;;;;;26.40;99.90;;;;;;5030221;28;19924;-79
2022/05/11 18:00:46;;;;;;;;;;;26.30;99.90;;;;;;5034620;28;20447;-78
2022/05/11 18:03:12;;;;;;;;;;;26.20;99.90;;;;;;5032095;28;19913;-79
2022/05/11 18:05:40;;;;;;;;;;;26.10;99.90;;;;;;5034528;28;19913;-78
2022/05/11 18:08:06;;;;;;;;;;;26.10;99.90;;;;;;5033993;28;20324;-78
2022/05/11 18:10:31;;;;;;;;;;;25.90;99.90;;;;;;5036734;28;19920;-79
2022/05/11 18:12:57;;;;;;;;;;;25.80;99.90;;;;;;5037561;28;20351;-79
2022/05/11 18:15:23;;;;;;;;;;;25.80;99.90;;;;;;5033745;28;19916;-79
2022/05/11 18:17:50;;;;;;;;;;;25.60;99.90;;;;;;5034252;28;19925;-79
2022/05/11 18:20:16;;;;;;;;;;;25.60;99.90;;;;;;5046285;28;20301;-79
2022/05/11 18:22:43;;;;;;;;;;;25.50;99.90;;;;;;5036576;28;20437;-79
2022/05/11 18:25:10;;;;;;;;;;;25.40;99.90;;;;;;5048159;28;19909;-79
2022/05/11 18:27:35;;;;;;;;;;;25.40;99.90;;;;;;5052831;28;19909;-78
2022/05/11 18:30:01;;;;;;;;;;;25.30;99.90;;;;;;5047209;28;19959;-80
2022/05/11 18:32:26;;;;;;;;;;;25.20;99.90;;;;;;5039507;28;19951;-79
2022/05/11 18:34:52;;;;;;;;;;;25.10;99.90;;;;;;5047266;28;19975;-79
2022/05/11 18:37:17;;;;;;;;;;;25.00;99.90;;;;;;5043159;28;19932;-78
2022/05/11 18:39:43;;;;;;;;;;;24.90;99.90;;;;;;5041599;28;20340;-79
2022/05/11 18:42:09;;;;;;;;;;;24.90;99.90;;;;;;5046716;28;20557;-79
2022/05/11 18:44:35;;;;;;;;;;;24.80;99.90;;;;;;5035190;28;19921;-79
2022/05/11 18:47:01;;;;;;;;;;;24.70;99.90;;;;;;5046804;28;19935;-80
2022/05/11 18:49:29;;;;;;;;;;;24.60;99.90;;;;;;5035815;28;20401;-79
2022/05/11 18:51:55;;;;;;;;;;;24.50;99.90;;;;;;5045144;28;19913;-79
2022/05/11 18:54:21;;;;;;;;;;;24.40;99.90;;;;;;5039481;28;20004;-80
2022/05/11 18:56:46;;;;;;;;;;;24.30;99.90;;;;;;5042194;28;19945;-80
2022/05/11 18:59:11;;;;;;;;;;;24.20;99.90;;;;;;5035409;28;20410;-79
2022/05/11 19:01:38;;;;;;;;;;;24.10;99.90;;;;;;5048041;28;20348;-81
2022/05/11 19:04:03;;;;;;;;;;;24.00;99.90;;;;;;5041807;28;19973;-80
2022/05/11 19:06:29;;;;;;;;;;;24.00;99.90;;;;;;5038976;28;19963;-80
2022/05/11 19:08:54;;;;;;;;;;;23.90;99.90;;;;;;5035967;28;19986;-80
2022/05/11 19:11:20;;;;;;;;;;;23.80;99.90;;;;;;5037000;28;19989;-80
2022/05/11 19:13:46;;;;;;;;;;;23.70;99.90;;;;;;5039350;28;20045;-80
2022/05/11 19:16:12;;;;;;;;;;;23.60;99.90;;;;;;5035507;28;19928;-81
2022/05/11 19:18:37;;;;;;;;;;;23.50;99.90;;;;;;5030381;28;19921;-81